Time;durP1;ratioP1;P1;durP2;ratioP2;P2;SDS_P1;SDS_P2;PMS_P1;PMS_P2;Temp;Humidity;BMP_temperature;BMP_pressure;BME280_temperature;BME280_humidity;BME280_pressure;Samples;Min_cycle;Max_cycle;Signal;HPM_P1;HPM_P2
2022/08/04 00:02:26;;;;;;;7.05;2.72;;;;;;;;;;5089967;28;20028;-74
2022/08/04 00:05:05;;;;;;;7.93;3.00;;;;;;;;;;5086041;28;20395;-73
2022/08/04 00:07:37;;;;;;;4.72;2.65;;;;;;;;;;5090903;28;20059;-72
2022/08/04 00:10:05;;;;;;;6.70;2.75;;;;;;;;;;5091940;28;20064;-73
2022/08/04 00:12:32;;;;;;;7.90;3.03;;;;;;;;;;5090536;28;20039;-72
2022/08/04 00:15:02;;;;;;;4.82;2.72;;;;;;;;;;5091145;28;20044;-74
2022/08/04 00:17:31;;;;;;;8.75;3.03;;;;;;;;;;5088424;28;20137;-74
2022/08/04 00:20:01;;;;;;;7.20;2.80;;;;;;;;;;5091812;28;20032;-74
2022/08/04 00:22:28;;;;;;;6.38;3.13;;;;;;;;;;5089429;28;20559;-74
2022/08/04 00:24:55;;;;;;;6.93;2.65;;;;;;;;;;5092015;28;20027;-74
2022/08/04 00:27:21;;;;;;;5.43;2.80;;;;;;;;;;5090873;28;20020;-74
2022/08/04 00:29:47;;;;;;;11.93;3.03;;;;;;;;;;5083607;28;20024;-75
2022/08/04 00:32:14;;;;;;;9.77;2.47;;;;;;;;;;5090501;28;20028;-75
2022/08/04 00:34:40;;;;;;;10.70;3.97;;;;;;;;;;5070298;28;20035;-76
2022/08/04 00:37:06;;;;;;;7.68;2.90;;;;;;;;;;5092045;28;20036;-73
2022/08/04 00:39:33;;;;;;;8.70;3.08;;;;;;;;;;5089112;28;20461;-74
2022/08/04 00:41:59;;;;;;;8.68;2.67;;;;;;;;;;5090877;28;20977;-72
2022/08/04 00:44:28;;;;;;;6.00;2.55;;;;;;;;;;5070365;28;20078;-74
2022/08/04 00:47:08;;;;;;;6.07;2.83;;;;;;;;;;5089019;28;20022;-74
2022/08/04 00:49:54;;;;;;;12.23;2.55;;;;;;;;;;5089759;28;20020;-74
2022/08/04 00:52:27;;;;;;;8.80;2.95;;;;;;;;;;5070364;28;20185;-74
2022/08/04 00:54:53;;;;;;;11.38;3.45;;;;;;;;;;5088395;28;20038;-74
2022/08/04 00:57:37;;;;;;;5.07;2.80;;;;;;;;;;5090184;28;20400;-72
2022/08/04 01:00:08;;;;;;;5.20;2.70;;;;;;;;;;5088463;28;20028;-72
2022/08/04 01:02:45;;;;;;;6.22;2.60;;;;;;;;;;5087215;28;20023;-73
2022/08/04 01:05:30;;;;;;;5.63;2.33;;;;;;;;;;5087500;28;20051;-73
2022/08/04 01:07:59;;;;;;;6.50;2.70;;;;;;;;;;5084755;28;20027;-73
2022/08/04 01:10:37;;;;;;;6.25;2.92;;;;;;;;;;5088883;28;20118;-77
2022/08/04 01:13:18;;;;;;;5.53;2.33;;;;;;;;;;5088424;28;20036;-71
2022/08/04 01:15:49;;;;;;;7.90;2.95;;;;;;;;;;5086419;28;20467;-71
2022/08/04 01:18:24;;;;;;;6.30;2.35;;;;;;;;;;5087832;28;20032;-71
2022/08/04 01:20:53;;;;;;;4.47;2.45;;;;;;;;;;5088642;28;20491;-71
2022/08/04 01:23:22;;;;;;;8.70;2.50;;;;;;;;;;5089311;28;20020;-71
2022/08/04 01:25:58;;;;;;;4.88;2.60;;;;;;;;;;5097054;28;20039;-71
2022/08/04 01:28:33;;;;;;;5.95;2.88;;;;;;;;;;5084760;28;20020;-71
2022/08/04 01:31:06;;;;;;;5.75;2.75;;;;;;;;;;5087364;28;20021;-71
2022/08/04 01:33:35;;;;;;;5.75;2.40;;;;;;;;;;5086919;28;20488;-71
2022/08/04 01:36:05;;;;;;;7.13;2.60;;;;;;;;;;5089696;28;20419;-71
2022/08/04 01:38:36;;;;;;;9.85;2.60;;;;;;;;;;5090957;28;20032;-71
2022/08/04 01:41:03;;;;;;;7.13;2.80;;;;;;;;;;5089311;28;20036;-71
2022/08/04 01:43:30;;;;;;;8.90;2.53;;;;;;;;;;5076087;28;20031;-71
2022/08/04 01:45:57;;;;;;;5.80;2.63;;;;;;;;;;5087760;28;20099;-71
2022/08/04 01:48:24;;;;;;;6.80;2.50;;;;;;;;;;5087927;28;20038;-71
2022/08/04 01:50:52;;;;;;;10.73;2.83;;;;;;;;;;5088883;28;20476;-71
2022/08/04 01:53:19;;;;;;;4.75;2.35;;;;;;;;;;5087846;28;20036;-71
2022/08/04 01:55:48;;;;;;;4.65;2.35;;;;;;;;;;5088613;28;20455;-72
2022/08/04 01:58:17;;;;;;;6.82;3.05;;;;;;;;;;5087053;28;20024;-73
2022/08/04 02:00:49;;;;;;;11.48;2.50;;;;;;;;;;5090803;28;20093;-73
2022/08/04 02:03:16;;;;;;;5.80;2.63;;;;;;;;;;5070029;28;20403;-73
2022/08/04 02:05:47;;;;;;;7.95;2.90;;;;;;;;;;5088891;28;20055;-73
2022/08/04 02:08:21;;;;;;;8.15;3.05;;;;;;;;;;5089785;28;20085;-73
2022/08/04 02:10:47;;;;;;;5.57;2.85;;;;;;;;;;5089476;28;20024;-73
2022/08/04 02:13:16;;;;;;;9.10;2.90;;;;;;;;;;5090721;28;20077;-73
2022/08/04 02:15:48;;;;;;;8.43;2.60;;;;;;;;;;5088616;28;20093;-73
2022/08/04 02:18:20;;;;;;;10.15;4.00;;;;;;;;;;5090109;28;20066;-73
2022/08/04 02:20:47;;;;;;;4.57;3.00;;;;;;;;;;5072587;28;21093;-73
2022/08/04 02:23:14;;;;;;;7.07;2.67;;;;;;;;;;5072362;28;20032;-74
2022/08/04 02:25:46;;;;;;;6.45;2.72;;;;;;;;;;5082878;28;20040;-73
2022/08/04 02:28:12;;;;;;;7.20;2.30;;;;;;;;;;5091778;28;20020;-74
2022/08/04 02:31:02;;;;;;;4.95;2.45;;;;;;;;;;5088738;28;20068;-75
2022/08/04 02:33:55;;;;;;;6.10;2.42;;;;;;;;;;5086925;28;20031;-74
2022/08/04 02:36:23;;;;;;;10.03;2.60;;;;;;;;;;5082075;28;20123;-74
2022/08/04 02:38:49;;;;;;;5.90;2.50;;;;;;;;;;5082179;28;20286;-75
2022/08/04 02:41:19;;;;;;;8.80;2.70;;;;;;;;;;5090041;28;20020;-74
2022/08/04 02:43:47;;;;;;;12.32;2.90;;;;;;;;;;5087137;28;20020;-73
2022/08/04 02:46:15;;;;;;;7.85;2.40;;;;;;;;;;5088747;28;20051;-73
2022/08/04 02:48:43;;;;;;;6.95;2.80;;;;;;;;;;5090775;28;20078;-73
2022/08/04 02:51:10;;;;;;;8.35;2.45;;;;;;;;;;5091834;28;20035;-73
2022/08/04 02:53:37;;;;;;;7.22;2.50;;;;;;;;;;5088481;28;20033;-73
2022/08/04 02:56:03;;;;;;;10.63;2.60;;;;;;;;;;5087896;28;20376;-73
2022/08/04 02:58:34;;;;;;;4.32;2.30;;;;;;;;;;5088819;28;20112;-73
2022/08/04 03:01:00;;;;;;;5.40;2.50;;;;;;;;;;5083869;28;20085;-72
2022/08/04 03:03:32;;;;;;;6.75;2.33;;;;;;;;;;5086654;28;20032;-74
2022/08/04 03:06:10;;;;;;;2.37;2.17;;;;;;;;;;5081556;28;20031;-74
2022/08/04 03:08:48;;;;;;;5.70;2.00;;;;;;;;;;5085147;28;20023;-74
2022/08/04 03:11:34;;;;;;;5.70;2.47;;;;;;;;;;5092313;28;20091;-72
2022/08/04 03:14:19;;;;;;;5.60;2.45;;;;;;;;;;5091132;28;20031;-74
2022/08/04 03:17:04;;;;;;;4.57;1.90;;;;;;;;;;5090554;28;20043;-75
2022/08/04 03:19:42;;;;;;;6.63;2.42;;;;;;;;;;5090229;28;20028;-75
2022/08/04 03:22:23;;;;;;;6.95;2.40;;;;;;;;;;5081670;28;20023;-75
2022/08/04 03:25:08;;;;;;;7.80;2.17;;;;;;;;;;5070920;28;20380;-75
2022/08/04 03:27:34;;;;;;;7.05;2.30;;;;;;;;;;5089410;28;20081;-71
2022/08/04 03:30:03;;;;;;;4.35;2.30;;;;;;;;;;5092851;28;20028;-74
2022/08/04 03:32:32;;;;;;;7.88;2.33;;;;;;;;;;5074279;28;20043;-74
2022/08/04 03:35:21;;;;;;;6.40;2.33;;;;;;;;;;5088200;28;20035;-73
2022/08/04 03:37:56;;;;;;;5.75;2.47;;;;;;;;;;5087461;28;20039;-73
2022/08/04 03:40:22;;;;;;;8.45;2.80;;;;;;;;;;5091323;28;20053;-72
2022/08/04 03:43:06;;;;;;;7.95;2.47;;;;;;;;;;5093990;28;20032;-72
2022/08/04 03:45:51;;;;;;;5.05;2.35;;;;;;;;;;5085719;28;20061;-74
2022/08/04 03:48:20;;;;;;;5.15;2.40;;;;;;;;;;5084954;28;20020;-74
2022/08/04 03:53:07;;;;;;;5.28;2.05;;;;;;;;;;5073900;28;20026;-74
2022/08/04 03:54:17;;;;;;;5.80;2.53;;;;;;;;;;5090246;28;20568;-74
2022/08/04 03:57:02;;;;;;;5.50;2.20;;;;;;;;;;5028298;28;20029;-74
2022/08/04 03:59:47;;;;;;;5.63;1.92;;;;;;;;;;5033196;28;20033;-74
2022/08/04 04:02:31;;;;;;;6.38;2.13;;;;;;;;;;4999984;28;20135;-74
2022/08/04 04:05:04;;;;;;;5.82;2.17;;;;;;;;;;5026717;28;20033;-74
2022/08/04 04:07:59;;;;;;;7.78;2.30;;;;;;;;;;5028251;28;20069;-71
2022/08/04 04:10:54;;;;;;;5.57;2.17;;;;;;;;;;5003610;28;20037;-71
2022/08/04 04:13:39;;;;;;;4.80;2.58;;;;;;;;;;5005010;28;20037;-71
2022/08/04 04:16:18;;;;;;;13.02;2.50;;;;;;;;;;5026347;28;20049;-73
2022/08/04 04:18:51;;;;;;;6.63;2.42;;;;;;;;;;5024823;28;20033;-73
2022/08/04 04:21:18;;;;;;;3.83;2.55;;;;;;;;;;5025084;28;20563;-73
2022/08/04 04:23:50;;;;;;;3.15;2.22;;;;;;;;;;5029760;28;20025;-73
2022/08/04 04:26:22;;;;;;;5.63;2.25;;;;;;;;;;5029827;28;20031;-73
2022/08/04 04:28:51;;;;;;;7.50;2.33;;;;;;;;;;5089593;28;20048;-73
2022/08/04 04:31:35;;;;;;;5.82;2.90;;;;;;;;;;5088059;28;20030;-72
2022/08/04 04:34:10;;;;;;;8.90;2.92;;;;;;;;;;5088272;28;20091;-72
2022/08/04 04:36:36;;;;;;;4.78;2.35;;;;;;;;;;5085396;28;20488;-72
2022/08/04 04:39:05;;;;;;;7.22;2.50;;;;;;;;;;5088311;28;20127;-72
2022/08/04 04:41:32;;;;;;;6.13;1.83;;;;;;;;;;5088410;28;20500;-74
2022/08/04 04:43:58;;;;;;;4.38;2.33;;;;;;;;;;5087228;28;20057;-72
2022/08/04 04:46:46;;;;;;;6.13;2.25;;;;;;;;;;5090238;28;20379;-78
2022/08/04 04:49:34;;;;;;;6.65;2.75;;;;;;;;;;5085969;28;20055;-79
2022/08/04 04:52:13;;;;;;;8.02;2.72;;;;;;;;;;5086358;28;20032;-79
2022/08/04 04:54:39;;;;;;;6.75;2.47;;;;;;;;;;5067517;28;20415;-79
2022/08/04 04:57:20;;;;;;;4.90;2.30;;;;;;;;;;5089886;28;20032;-79
2022/08/04 05:00:01;;;;;;;9.15;2.40;;;;;;;;;;5071454;28;20090;-79
2022/08/04 05:02:38;;;;;;;6.25;2.45;;;;;;;;;;5088993;28;20032;-79
2022/08/04 05:05:16;;;;;;;4.82;2.30;;;;;;;;;;5085222;28;20389;-79
2022/08/04 05:08:01;;;;;;;7.82;2.53;;;;;;;;;;5088912;28;20033;-79
2022/08/04 05:10:50;;;;;;;9.05;2.63;;;;;;;;;;5087744;28;20032;-79
2022/08/04 05:13:22;;;;;;;3.55;2.40;;;;;;;;;;5085994;28;20036;-79
2022/08/04 05:15:50;;;;;;;6.25;2.38;;;;;;;;;;5086423;28;20059;-79
2022/08/04 05:18:20;;;;;;;11.75;2.72;;;;;;;;;;5085197;28;20032;-78
2022/08/04 05:20:50;;;;;;;7.80;2.75;;;;;;;;;;5084589;28;20032;-78
2022/08/04 05:23:19;;;;;;;4.68;2.15;;;;;;;;;;5084108;28;20158;-78
2022/08/04 05:25:53;;;;;;;6.97;3.00;;;;;;;;;;5088290;28;20027;-78
2022/08/04 05:28:28;;;;;;;6.70;3.28;;;;;;;;;;5086207;28;20023;-78
2022/08/04 05:30:58;;;;;;;6.80;2.45;;;;;;;;;;5084052;28;20028;-78
2022/08/04 05:33:27;;;;;;;8.05;2.85;;;;;;;;;;5081152;28;20720;-78
2022/08/04 05:35:56;;;;;;;5.88;2.60;;;;;;;;;;5067006;28;20034;-78
2022/08/04 05:38:25;;;;;;;4.55;2.42;;;;;;;;;;5088632;28;20093;-77
2022/08/04 05:40:52;;;;;;;8.00;2.72;;;;;;;;;;5089192;28;20529;-77
2022/08/04 05:43:19;;;;;;;6.35;2.65;;;;;;;;;;5088310;28;20032;-77
2022/08/04 05:45:47;;;;;;;10.63;2.90;;;;;;;;;;5091732;28;20549;-77
2022/08/04 05:48:13;;;;;;;6.97;2.90;;;;;;;;;;5084453;28;20054;-77
2022/08/04 05:50:40;;;;;;;9.23;3.03;;;;;;;;;;5089337;28;20031;-79
2022/08/04 05:53:09;;;;;;;7.20;2.65;;;;;;;;;;5087491;28;20024;-77
2022/08/04 05:55:35;;;;;;;8.43;3.20;;;;;;;;;;5066682;28;20073;-77
2022/08/04 05:58:01;;;;;;;6.55;2.50;;;;;;;;;;5071030;28;20044;-76
2022/08/04 06:00:28;;;;;;;10.48;3.50;;;;;;;;;;5086677;28;20028;-76
2022/08/04 06:02:56;;;;;;;8.98;2.67;;;;;;;;;;5086805;28;20350;-77
2022/08/04 06:05:22;;;;;;;13.50;2.63;;;;;;;;;;5087361;28;20158;-77
2022/08/04 06:07:48;;;;;;;11.07;3.33;;;;;;;;;;5089156;28;20134;-77
2022/08/04 06:10:15;;;;;;;10.27;3.00;;;;;;;;;;5089535;28;20028;-77
2022/08/04 06:13:00;;;;;;;15.73;3.28;;;;;;;;;;5084656;28;20036;-78
2022/08/04 06:15:27;;;;;;;9.98;2.83;;;;;;;;;;5087105;28;20052;-78
2022/08/04 06:17:54;;;;;;;17.38;2.83;;;;;;;;;;5087535;28;20028;-77
2022/08/04 06:20:22;;;;;;;10.20;2.72;;;;;;;;;;5085636;28;20028;-78
2022/08/04 06:22:51;;;;;;;9.05;2.65;;;;;;;;;;5064648;28;20028;-78
2022/08/04 06:25:19;;;;;;;15.40;3.20;;;;;;;;;;5086497;28;20039;-78
2022/08/04 06:27:46;;;;;;;7.85;2.80;;;;;;;;;;5087424;28;20016;-78
2022/08/04 06:30:13;;;;;;;13.77;2.55;;;;;;;;;;5069039;28;20369;-78
2022/08/04 06:35:35;;;;;;;13.13;2.90;;;;;;;;;;5045608;28;20180;-78
2022/08/04 06:38:02;;;;;;;17.48;3.08;;;;;;;;;;5044679;28;20092;-78
2022/08/04 06:40:29;;;;;;;10.23;2.45;;;;;;;;;;5044357;28;20044;-80
2022/08/04 06:42:55;;;;;;;8.48;2.40;;;;;;;;;;5048657;28;20074;-78
2022/08/04 06:45:21;;;;;;;10.07;2.95;;;;;;;;;;5048002;28;20029;-79
2022/08/04 06:47:48;;;;;;;10.38;2.53;;;;;;;;;;5029828;28;20037;-80
2022/08/04 06:50:14;;;;;;;16.05;3.00;;;;;;;;;;5046615;28;20048;-77
2022/08/04 06:52:40;;;;;;;11.35;2.80;;;;;;;;;;5047116;28;20055;-77
2022/08/04 06:55:07;;;;;;;17.33;2.60;;;;;;;;;;5045088;28;20035;-77
2022/08/04 06:57:34;;;;;;;12.73;3.00;;;;;;;;;;5043824;28;20051;-78
2022/08/04 07:00:01;;;;;;;11.32;2.25;;;;;;;;;;5047210;28;20102;-79
2022/08/04 07:02:29;;;;;;;11.10;2.50;;;;;;;;;;5045640;28;20021;-78
2022/08/04 07:04:55;;;;;;;12.15;2.30;;;;;;;;;;5046009;28;20036;-78
2022/08/04 07:07:23;;;;;;;11.52;4.03;;;;;;;;;;5049022;28;20050;-79
2022/08/04 07:09:50;;;;;;;15.25;2.40;;;;;;;;;;5046147;28;20033;-78
2022/08/04 07:12:20;;;;;;;14.10;2.30;;;;;;;;;;5064483;28;20040;-79
2022/08/04 07:14:47;;;;;;;16.02;2.35;;;;;;;;;;5090987;28;20052;-79
2022/08/04 07:17:14;;;;;;;13.85;2.67;;;;;;;;;;5087908;28;20154;-79
2022/08/04 07:19:43;;;;;;;8.07;1.88;;;;;;;;;;5088744;28;20032;-79
2022/08/04 07:22:10;;;;;;;13.30;2.00;;;;;;;;;;5087788;28;20032;-79
2022/08/04 07:24:37;;;;;;;4.60;1.75;;;;;;;;;;5088676;28;20024;-79
2022/08/04 07:27:04;;;;;;;6.88;1.50;;;;;;;;;;5089490;28;20016;-79
2022/08/04 07:29:30;;;;;;;11.07;1.98;;;;;;;;;;5070489;28;20034;-80
2022/08/04 07:31:57;;;;;;;10.90;1.70;;;;;;;;;;5087926;28;20492;-79
2022/08/04 07:34:24;;;;;;;14.60;2.17;;;;;;;;;;5088935;28;20067;-80
2022/08/04 07:36:51;;;;;;;13.23;1.67;;;;;;;;;;5088654;28;20032;-79
2022/08/04 07:39:18;;;;;;;7.90;2.30;;;;;;;;;;5074809;28;20036;-81
2022/08/04 07:41:45;;;;;;;12.10;2.28;;;;;;;;;;5088891;28;20031;-81
2022/08/04 07:44:12;;;;;;;12.48;1.90;;;;;;;;;;5090089;28;20036;-81
2022/08/04 07:46:39;;;;;;;6.93;1.73;;;;;;;;;;5089272;28;20024;-81
2022/08/04 07:49:06;;;;;;;6.20;2.05;;;;;;;;;;5090192;28;20081;-80
2022/08/04 07:51:34;;;;;;;15.68;2.20;;;;;;;;;;5087494;28;20051;-80
2022/08/04 07:54:04;;;;;;;7.53;2.38;;;;;;;;;;5086162;28;20495;-80
2022/08/04 07:56:31;;;;;;;7.93;2.20;;;;;;;;;;5090123;28;20028;-81
2022/08/04 07:58:57;;;;;;;12.07;2.05;;;;;;;;;;5087289;28;20036;-81
2022/08/04 08:01:24;;;;;;;11.00;1.95;;;;;;;;;;5087763;28;20468;-80
2022/08/04 08:03:51;;;;;;;5.75;1.92;;;;;;;;;;5079406;28;20048;-80
2022/08/04 08:06:17;;;;;;;11.68;1.80;;;;;;;;;;5079665;28;20142;-80
2022/08/04 08:08:43;;;;;;;13.75;2.00;;;;;;;;;;5084165;28;20093;-80
2022/08/04 08:11:10;;;;;;;6.95;1.77;;;;;;;;;;5083087;28;20115;-80
2022/08/04 08:13:36;;;;;;;11.95;1.95;;;;;;;;;;5086189;28;20040;-80
2022/08/04 08:16:03;;;;;;;9.02;1.75;;;;;;;;;;5079637;28;20492;-80
2022/08/04 08:18:29;;;;;;;7.85;1.75;;;;;;;;;;5081446;28;20032;-80
2022/08/04 08:20:56;;;;;;;10.38;2.08;;;;;;;;;;5083880;28;20028;-80
2022/08/04 08:23:22;;;;;;;14.02;3.08;;;;;;;;;;5085011;28;20040;-80
2022/08/04 08:25:48;;;;;;;8.68;1.90;;;;;;;;;;5087724;28;20292;-80
2022/08/04 08:28:15;;;;;;;9.88;1.85;;;;;;;;;;5079155;28;20043;-80
2022/08/04 08:30:41;;;;;;;9.82;1.90;;;;;;;;;;5082553;28;20487;-81
2022/08/04 08:33:10;;;;;;;7.68;1.70;;;;;;;;;;5087399;28;20055;-80
2022/08/04 08:35:45;;;;;;;10.10;1.90;;;;;;;;;;5089060;28;20035;-80
2022/08/04 08:38:13;;;;;;;8.00;1.67;;;;;;;;;;5082314;28;20028;-81
2022/08/04 08:40:53;;;;;;;6.25;1.55;;;;;;;;;;5086710;28;20114;-81
2022/08/04 08:43:19;;;;;;;6.65;1.40;;;;;;;;;;5080366;28;20028;-81
2022/08/04 08:45:45;;;;;;;7.65;1.80;;;;;;;;;;5070227;28;20047;-81
2022/08/04 08:48:11;;;;;;;13.70;1.85;;;;;;;;;;5089373;28;20042;-80
2022/08/04 08:50:46;;;;;;;8.73;1.70;;;;;;;;;;5092024;28;20028;-80
2022/08/04 08:53:42;;;;;;;7.68;1.67;;;;;;;;;;5082963;28;20042;-80
2022/08/04 08:56:33;;;;;;;6.60;1.52;;;;;;;;;;5028681;28;20209;-77
2022/08/04 08:59:18;;;;;;;8.73;1.38;;;;;;;;;;5028108;28;20032;-79
2022/08/04 09:01:50;;;;;;;9.05;1.42;;;;;;;;;;5027600;28;20034;-78
2022/08/04 09:04:16;;;;;;;5.60;1.65;;;;;;;;;;5027206;28;20029;-78
2022/08/04 09:06:48;;;;;;;7.72;1.88;;;;;;;;;;5028613;28;20030;-78
2022/08/04 09:09:28;;;;;;;7.00;1.80;;;;;;;;;;5025219;28;20029;-80
2022/08/04 09:12:12;;;;;;;5.88;1.08;;;;;;;;;;5025869;28;20131;-80
2022/08/04 09:14:41;;;;;;;5.85;1.65;;;;;;;;;;5021695;28;20049;-80
2022/08/04 09:17:13;;;;;;;5.45;1.90;;;;;;;;;;5024664;28;20082;-79
2022/08/04 09:19:44;;;;;;;7.17;2.27;;;;;;;;;;5020624;28;20559;-80
2022/08/04 09:22:13;;;;;;;6.50;1.30;;;;;;;;;;5022232;28;20816;-79
2022/08/04 09:24:45;;;;;;;10.73;1.83;;;;;;;;;;5017965;28;20022;-76
2022/08/04 09:27:34;;;;;;;5.97;1.30;;;;;;;;;;5025999;28;20073;-77
2022/08/04 09:30:03;;;;;;;5.35;1.10;;;;;;;;;;5017838;28;20045;-76
2022/08/04 09:32:32;;;;;;;5.05;1.30;;;;;;;;;;5057865;28;20161;-76
2022/08/04 09:35:18;;;;;;;8.25;1.63;;;;;;;;;;5090144;28;20028;-76
2022/08/04 09:38:03;;;;;;;5.72;1.30;;;;;;;;;;5071218;28;20055;-76
2022/08/04 09:40:33;;;;;;;5.85;1.27;;;;;;;;;;5088275;28;20038;-77
2022/08/04 09:43:18;;;;;;;7.30;1.35;;;;;;;;;;5089825;28;20073;-76
2022/08/04 09:46:00;;;;;;;5.25;1.35;;;;;;;;;;5086152;28;21096;-76
2022/08/04 09:48:26;;;;;;;6.00;1.47;;;;;;;;;;5089005;28;20031;-76
2022/08/04 09:50:58;;;;;;;4.60;1.20;;;;;;;;;;5072952;28;20115;-77
2022/08/04 09:53:40;;;;;;;6.05;1.20;;;;;;;;;;5089018;28;20504;-77
2022/08/04 09:56:06;;;;;;;2.33;0.65;;;;;;;;;;5069219;28;20043;-77
2022/08/04 09:58:51;;;;;;;5.43;1.40;;;;;;;;;;5093850;28;20024;-77
2022/08/04 10:01:19;;;;;;;3.28;1.13;;;;;;;;;;5086938;28;20028;-77
2022/08/04 10:03:49;;;;;;;9.38;1.50;;;;;;;;;;5085217;28;20549;-77
2022/08/04 10:06:34;;;;;;;3.58;1.20;;;;;;;;;;5089984;28;20116;-77
2022/08/04 10:09:00;;;;;;;8.98;1.58;;;;;;;;;;5089314;28;20031;-76
2022/08/04 10:11:45;;;;;;;9.85;1.77;;;;;;;;;;5091104;28;20357;-76
2022/08/04 10:14:29;;;;;;;6.50;1.10;;;;;;;;;;5089513;28;20043;-76
2022/08/04 10:17:16;;;;;;;7.00;1.40;;;;;;;;;;5088906;28;20032;-76
2022/08/04 10:19:42;;;;;;;6.20;1.60;;;;;;;;;;5085455;28;20032;-77
2022/08/04 10:22:20;;;;;;;5.72;1.45;;;;;;;;;;5071864;28;20372;-77
2022/08/04 10:24:52;;;;;;;9.73;1.65;;;;;;;;;;5078867;28;20035;-77
2022/08/04 10:27:33;;;;;;;5.20;1.65;;;;;;;;;;5088548;28;20024;-77
2022/08/04 10:30:03;;;;;;;6.00;1.30;;;;;;;;;;5088284;28;20032;-76
2022/08/04 10:32:33;;;;;;;9.00;1.20;;;;;;;;;;5062904;28;20047;-76
2022/08/04 10:35:29;;;;;;;7.88;1.17;;;;;;;;;;5075242;28;20044;-76
2022/08/04 10:38:18;;;;;;;5.40;1.17;;;;;;;;;;5060657;28;20036;-76
2022/08/04 10:40:46;;;;;;;5.80;1.52;;;;;;;;;;5057604;28;22070;-75
2022/08/04 10:43:27;;;;;;;4.90;1.23;;;;;;;;;;5075268;28;20036;-76
2022/08/04 10:45:57;;;;;;;9.48;1.58;;;;;;;;;;5074252;28;20067;-76
2022/08/04 10:48:27;;;;;;;6.97;1.35;;;;;;;;;;5078072;28;20479;-76
2022/08/04 10:51:02;;;;;;;8.50;1.48;;;;;;;;;;5075644;28;20055;-77
2022/08/04 10:53:29;;;;;;;4.75;1.15;;;;;;;;;;5080057;28;20081;-76
2022/08/04 10:55:58;;;;;;;4.03;1.20;;;;;;;;;;5077453;28;20059;-77
2022/08/04 10:58:26;;;;;;;6.47;1.52;;;;;;;;;;5072437;28;20060;-76
2022/08/04 11:00:55;;;;;;;6.45;1.50;;;;;;;;;;5072507;28;20036;-76
2022/08/04 11:03:30;;;;;;;6.70;1.55;;;;;;;;;;5076147;28;20029;-77
2022/08/04 11:06:03;;;;;;;10.20;1.38;;;;;;;;;;5062150;28;20446;-76
2022/08/04 11:08:35;;;;;;;5.40;1.60;;;;;;;;;;5076225;28;20020;-76
2022/08/04 11:11:05;;;;;;;4.65;1.52;;;;;;;;;;5081294;28;20387;-76
2022/08/04 11:13:50;;;;;;;6.50;1.45;;;;;;;;;;5091846;28;20108;-76
2022/08/04 11:16:26;;;;;;;5.50;1.58;;;;;;;;;;5083748;28;20043;-76
2022/08/04 11:18:58;;;;;;;5.90;1.23;;;;;;;;;;5082502;28;20027;-76
2022/08/04 11:21:35;;;;;;;5.63;1.02;;;;;;;;;;5074435;28;20025;-76
2022/08/04 11:24:08;;;;;;;3.72;1.20;;;;;;;;;;5067174;28;20047;-76
2022/08/04 11:26:54;;;;;;;5.10;1.10;;;;;;;;;;5073926;28;20488;-76
2022/08/04 11:29:41;;;;;;;7.25;1.27;;;;;;;;;;5059811;28;20032;-76
2022/08/04 11:32:10;;;;;;;3.30;1.30;;;;;;;;;;5074563;28;20484;-76
2022/08/04 11:34:38;;;;;;;7.68;1.60;;;;;;;;;;5080587;28;20020;-76
2022/08/04 11:37:17;;;;;;;4.85;1.25;;;;;;;;;;5082103;28;20034;-75
2022/08/04 11:39:56;;;;;;;10.00;1.70;;;;;;;;;;5086578;28;20059;-76
2022/08/04 11:42:25;;;;;;;4.35;1.15;;;;;;;;;;5089083;28;20136;-76
2022/08/04 11:45:06;;;;;;;6.88;1.25;;;;;;;;;;5082544;28;20484;-76
2022/08/04 11:47:37;;;;;;;7.45;1.15;;;;;;;;;;5067303;28;20041;-75
2022/08/04 11:50:07;;;;;;;6.72;1.23;;;;;;;;;;5083814;28;20861;-75
2022/08/04 11:52:34;;;;;;;5.55;1.55;;;;;;;;;;5078571;28;20040;-75
2022/08/04 11:55:06;;;;;;;5.90;1.10;;;;;;;;;;5080159;28;20032;-75
2022/08/04 11:57:32;;;;;;;2.50;0.90;;;;;;;;;;5079852;28;20413;-75
2022/08/04 11:59:59;;;;;;;2.00;0.90;;;;;;;;;;5064706;28;20044;-75
2022/08/04 12:02:44;;;;;;;7.03;1.27;;;;;;;;;;5066847;28;20441;-75
2022/08/04 12:05:11;;;;;;;4.03;1.33;;;;;;;;;;5077797;28;20114;-75
2022/08/04 12:07:54;;;;;;;3.20;1.00;;;;;;;;;;5083618;28;20020;-76
2022/08/04 12:10:47;;;;;;;3.38;1.10;;;;;;;;;;5082484;28;20131;-76
2022/08/04 12:13:16;;;;;;;4.43;1.30;;;;;;;;;;5079633;28;20051;-77
2022/08/04 12:16:01;;;;;;;4.30;1.10;;;;;;;;;;5077091;28;20067;-76
2022/08/04 12:18:27;;;;;;;6.57;1.63;;;;;;;;;;5079048;28;20028;-76
2022/08/04 12:21:08;;;;;;;2.50;0.82;;;;;;;;;;5074781;28;20032;-76
2022/08/04 12:23:44;;;;;;;2.50;0.70;;;;;;;;;;5082825;28;20373;-76
2022/08/04 12:26:31;;;;;;;4.55;0.98;;;;;;;;;;5076299;28;20024;-75
2022/08/04 12:28:59;;;;;;;3.20;0.70;;;;;;;;;;5083010;28;20024;-76
2022/08/04 12:31:45;;;;;;;2.88;0.60;;;;;;;;;;5079990;28;20572;-75
2022/08/04 12:34:11;;;;;;;4.07;0.55;;;;;;;;;;5061470;28;20039;-76
2022/08/04 12:36:56;;;;;;;2.08;0.77;;;;;;;;;;5080427;28;20077;-76
2022/08/04 12:39:24;;;;;;;3.83;1.15;;;;;;;;;;5080570;28;20031;-77
2022/08/04 12:42:09;;;;;;;3.03;1.15;;;;;;;;;;5081984;28;20077;-76
2022/08/04 12:44:36;;;;;;;3.60;0.80;;;;;;;;;;5081273;28;20406;-76
2022/08/04 12:47:04;;;;;;;4.35;1.23;;;;;;;;;;5079186;28;20044;-76
2022/08/04 12:49:32;;;;;;;5.78;0.80;;;;;;;;;;5078936;28;20043;-76
2022/08/04 12:51:59;;;;;;;3.97;0.98;;;;;;;;;;5081341;28;20121;-76
2022/08/04 12:54:26;;;;;;;1.90;0.70;;;;;;;;;;5075573;28;20081;-76
2022/08/04 12:56:53;;;;;;;8.38;0.98;;;;;;;;;;5081550;28;20035;-76
2022/08/04 12:59:21;;;;;;;2.90;0.65;;;;;;;;;;5080664;28;20040;-76
2022/08/04 13:01:48;;;;;;;4.32;0.90;;;;;;;;;;5078292;28;20032;-77
2022/08/04 13:04:25;;;;;;;3.25;0.70;;;;;;;;;;5085026;28;20020;-77
2022/08/04 13:06:55;;;;;;;4.57;0.95;;;;;;;;;;5065486;28;20807;-77
2022/08/04 13:09:23;;;;;;;8.00;0.90;;;;;;;;;;5084586;28;20031;-77
2022/08/04 13:11:55;;;;;;;5.47;0.90;;;;;;;;;;5060784;28;20598;-77
2022/08/04 13:14:21;;;;;;;8.27;0.85;;;;;;;;;;5076958;28;20071;-76
2022/08/04 13:16:47;;;;;;;3.90;0.82;;;;;;;;;;5074962;28;20027;-77
2022/08/04 13:19:14;;;;;;;6.15;1.20;;;;;;;;;;5081880;28;20039;-77
2022/08/04 13:21:46;;;;;;;5.05;0.70;;;;;;;;;;5077454;28;20071;-77
2022/08/04 13:24:13;;;;;;;3.67;0.63;;;;;;;;;;5076836;28;20036;-78
2022/08/04 13:26:57;;;;;;;6.93;1.05;;;;;;;;;;5079187;28;20028;-78
2022/08/04 13:29:38;;;;;;;13.38;1.67;;;;;;;;;;5065555;28;20043;-78
2022/08/04 13:32:04;;;;;;;1.73;0.75;;;;;;;;;;5085467;28;20496;-79
2022/08/04 13:34:32;;;;;;;2.20;0.85;;;;;;;;;;5091059;28;20620;-79
2022/08/04 13:36:59;;;;;;;2.72;0.70;;;;;;;;;;5096973;28;20036;-79
2022/08/04 13:39:26;;;;;;;3.30;0.95;;;;;;;;;;5083715;28;20503;-79
2022/08/04 13:41:54;;;;;;;6.05;1.38;;;;;;;;;;5088932;28;20094;-79
2022/08/04 13:44:26;;;;;;;4.60;1.10;;;;;;;;;;5098629;28;20550;-79
2022/08/04 13:46:58;;;;;;;3.40;0.90;;;;;;;;;;5087264;28;20020;-79
2022/08/04 13:49:24;;;;;;;3.70;0.93;;;;;;;;;;5090306;28;20020;-80
2022/08/04 13:51:54;;;;;;;5.60;0.90;;;;;;;;;;5090910;28;20488;-79
2022/08/04 13:54:21;;;;;;;8.57;1.10;;;;;;;;;;5091946;28;20024;-79
2022/08/04 13:56:53;;;;;;;3.20;0.88;;;;;;;;;;5088396;28;20610;-79
2022/08/04 13:59:22;;;;;;;1.92;0.68;;;;;;;;;;5075747;28;20035;-79
2022/08/04 14:01:56;;;;;;;14.35;1.92;;;;;;;;;;5084728;28;20023;-79
2022/08/04 14:04:25;;;;;;;2.35;1.35;;;;;;;;;;5090256;28;20016;-79
2022/08/04 14:06:55;;;;;;;1.65;0.80;;;;;;;;;;5091290;28;20016;-79
2022/08/04 14:09:23;;;;;;;4.38;0.90;;;;;;;;;;5091439;28;20024;-79
2022/08/04 14:11:50;;;;;;;5.78;1.02;;;;;;;;;;5090146;28;20016;-79
2022/08/04 14:14:19;;;;;;;4.25;1.10;;;;;;;;;;5095434;28;20040;-79
2022/08/04 14:17:01;;;;;;;7.75;1.05;;;;;;;;;;5085618;28;20039;-79
2022/08/04 14:19:29;;;;;;;5.35;1.10;;;;;;;;;;5092507;28;20043;-79
2022/08/04 14:21:55;;;;;;;2.55;1.35;;;;;;;;;;5090169;28;20035;-79
2022/08/04 14:24:27;;;;;;;5.47;1.13;;;;;;;;;;5090970;28;20035;-79
2022/08/04 14:26:53;;;;;;;;;;;;;;;;;;5085506;28;20035;-79
2022/08/04 14:29:20;;;;;;;3.15;1.35;;;;;;;;;;5083032;28;19908;-79
2022/08/04 14:31:48;;;;;;;6.68;1.52;;;;;;;;;;5084628;28;20052;-79
2022/08/04 14:34:27;;;;;;;6.38;1.67;;;;;;;;;;5088708;28;20024;-78
2022/08/04 14:36:53;;;;;;;6.70;2.30;;;;;;;;;;5089862;28;20483;-79
2022/08/04 14:39:35;;;;;;;11.27;1.73;;;;;;;;;;5089125;28;20049;-79
2022/08/04 14:42:01;;;;;;;8.63;1.50;;;;;;;;;;5090466;28;20503;-79
2022/08/04 14:44:27;;;;;;;9.20;1.70;;;;;;;;;;5092613;28;20017;-79
2022/08/04 14:46:54;;;;;;;3.30;1.23;;;;;;;;;;5085730;28;20024;-79
2022/08/04 14:49:21;;;;;;;8.40;1.27;;;;;;;;;;5087451;28;20115;-79
2022/08/04 14:51:58;;;;;;;3.78;1.08;;;;;;;;;;5086485;28;20025;-77
2022/08/04 14:54:28;;;;;;;5.88;0.85;;;;;;;;;;5090200;28;20034;-77
2022/08/04 14:56:56;;;;;;;5.53;1.20;;;;;;;;;;5087434;28;20050;-75
2022/08/04 14:59:23;;;;;;;4.00;1.20;;;;;;;;;;5083744;28;20024;-77
2022/08/04 15:01:50;;;;;;;3.10;0.80;;;;;;;;;;5077596;28;20043;-77
2022/08/04 15:04:16;;;;;;;3.75;1.10;;;;;;;;;;5088151;28;20307;-77
2022/08/04 15:06:43;;;;;;;7.00;1.00;;;;;;;;;;5084132;28;20016;-77
2022/08/04 15:09:10;;;;;;;7.03;1.13;;;;;;;;;;5083607;28;20035;-78
2022/08/04 15:11:36;;;;;;;5.22;1.17;;;;;;;;;;5077408;28;20392;-78
2022/08/04 15:14:03;;;;;;;5.13;1.25;;;;;;;;;;5075513;28;20054;-77